createdAt,value
2022-12-08T00:01:56.537Z,4.40
2022-12-08T00:05:37.897Z,4.40
2022-12-08T00:09:19.326Z,7.53
2022-12-08T00:12:42.751Z,4.50
2022-12-08T00:16:08.402Z,4.50
2022-12-08T00:19:33.016Z,5.40
2022-12-08T00:22:56.780Z,4.47
2022-12-08T00:26:20.283Z,4.27
2022-12-08T00:29:45.477Z,3.83
2022-12-08T00:33:10.795Z,5.67
2022-12-08T00:36:34.909Z,4.83
2022-12-08T00:39:58.674Z,4.90
2022-12-08T00:43:22.596Z,6.43
2022-12-08T00:46:47.111Z,4.90
2022-12-08T00:50:12.809Z,4.93
2022-12-08T00:53:36.603Z,4.03
2022-12-08T00:57:00.327Z,4.27
2022-12-08T01:00:24.252Z,4.27
2022-12-08T01:03:48.302Z,4.73
2022-12-08T01:07:13.619Z,4.10
2022-12-08T01:10:37.939Z,5.20
2022-12-08T01:14:01.658Z,5.20
2022-12-08T01:17:25.226Z,5.03
2022-12-08T01:20:48.794Z,4.20
2022-12-08T01:24:16.613Z,4.23
2022-12-08T01:27:40.321Z,4.37
2022-12-08T01:31:04.021Z,4.97
2022-12-08T01:34:27.610Z,4.63
2022-12-08T01:37:52.112Z,3.63
2022-12-08T01:41:18.930Z,4.67
2022-12-08T01:45:02.687Z,4.40
2022-12-08T01:48:28.619Z,5.57
2022-12-08T01:51:58.039Z,4.10
2022-12-08T01:55:25.337Z,6.67
2022-12-08T01:58:55.453Z,6.80
2022-12-08T02:02:19.365Z,5.10
2022-12-08T02:05:43.112Z,5.80
2022-12-08T02:09:07.638Z,4.30
2022-12-08T02:12:31.532Z,4.20
2022-12-08T02:16:06.248Z,4.90
2022-12-08T02:20:17.370Z,6.50
2022-12-08T02:23:56.220Z,3.43
2022-12-08T02:27:42.013Z,3.90
2022-12-08T02:31:22.700Z,4.10
2022-12-08T02:35:00.220Z,3.77
2022-12-08T02:38:36.499Z,3.67
2022-12-08T02:42:11.901Z,3.47
2022-12-08T02:45:40.827Z,3.00
2022-12-08T02:49:05.375Z,3.97
2022-12-08T02:52:44.859Z,3.23
2022-12-08T02:56:36.368Z,3.57
2022-12-08T03:00:10.605Z,3.67
2022-12-08T03:03:46.435Z,4.70
2022-12-08T03:07:20.919Z,4.20
2022-12-08T03:10:54.392Z,3.90
2022-12-08T03:14:20.346Z,3.57
2022-12-08T03:17:50.229Z,4.37
2022-12-08T03:21:19.133Z,4.97
2022-12-08T03:24:46.278Z,4.83
2022-12-08T03:28:12.727Z,4.23
2022-12-08T03:31:45.114Z,3.53
2022-12-08T03:35:15.116Z,4.17
2022-12-08T03:38:39.947Z,4.00
2022-12-08T03:42:03.420Z,4.50
2022-12-08T03:45:28.465Z,5.50
2022-12-08T03:48:52.360Z,5.20
2022-12-08T03:52:15.935Z,4.00
2022-12-08T03:55:39.758Z,4.07
2022-12-08T03:59:04.122Z,4.83
2022-12-08T04:02:29.063Z,6.50
2022-12-08T04:05:52.929Z,3.73
2022-12-08T04:09:16.471Z,3.77
2022-12-08T04:12:40.238Z,4.13
2022-12-08T04:16:05.054Z,3.47
2022-12-08T04:19:30.551Z,4.80
2022-12-08T04:22:54.389Z,3.40
2022-12-08T04:26:19.017Z,3.80
2022-12-08T04:29:42.603Z,4.60
2022-12-08T04:33:06.604Z,3.80
2022-12-08T04:36:31.583Z,4.00
2022-12-08T04:39:55.530Z,3.63
2022-12-08T04:43:19.135Z,5.30
2022-12-08T04:46:43.754Z,4.20
2022-12-08T04:50:09.122Z,4.40
2022-12-08T04:53:34.455Z,3.23
2022-12-08T04:56:58.417Z,3.87
2022-12-08T05:00:22.544Z,3.90
2022-12-08T05:03:46.095Z,3.03
2022-12-08T05:07:10.048Z,3.00
2022-12-08T05:10:35.248Z,3.00
2022-12-08T05:13:59.086Z,3.03
2022-12-08T05:17:23.048Z,3.53
2022-12-08T05:20:46.634Z,3.00
2022-12-08T05:24:10.650Z,2.70
2022-12-08T05:27:36.082Z,3.10
2022-12-08T05:30:59.811Z,3.20
2022-12-08T05:34:23.822Z,4.00
2022-12-08T05:37:47.284Z,3.80
2022-12-08T05:41:15.344Z,3.73
2022-12-08T05:44:40.116Z,3.80
2022-12-08T05:48:03.648Z,4.50
2022-12-08T05:51:27.178Z,4.00
2022-12-08T05:54:50.661Z,3.87
2022-12-08T05:58:17.393Z,6.13
2022-12-08T06:01:42.618Z,3.50
2022-12-08T06:05:07.198Z,4.27
2022-12-08T06:08:30.646Z,3.30
2022-12-08T06:11:55.616Z,5.30
2022-12-08T06:15:19.541Z,3.17
2022-12-08T06:18:46.016Z,3.50
2022-12-08T06:22:09.518Z,5.77
2022-12-08T06:25:33.453Z,5.57
2022-12-08T06:28:57.432Z,3.70
2022-12-08T06:32:27.116Z,4.00
2022-12-08T06:35:52.721Z,3.80
2022-12-08T06:39:16.879Z,3.80
2022-12-08T06:42:47.272Z,3.57
2022-12-08T06:46:15.406Z,3.90
2022-12-08T06:49:39.361Z,3.30
2022-12-08T06:53:05.656Z,4.33
2022-12-08T06:56:30.176Z,3.50
2022-12-08T06:59:53.752Z,3.90
2022-12-08T07:03:17.303Z,4.00
2022-12-08T07:06:41.334Z,4.40
2022-12-08T07:10:08.568Z,3.47
2022-12-08T07:13:32.515Z,4.90
2022-12-08T07:16:56.474Z,4.07
2022-12-08T07:20:20.347Z,3.77
2022-12-08T07:23:50.204Z,3.93
2022-12-08T07:27:19.008Z,3.50
2022-12-08T07:30:42.839Z,3.43
2022-12-08T07:34:06.782Z,3.00
2022-12-08T07:37:30.610Z,3.30
2022-12-08T07:40:55.075Z,4.10
2022-12-08T07:44:19.948Z,5.50
2022-12-08T07:47:43.764Z,5.33
2022-12-08T07:51:08.002Z,2.70
2022-12-08T07:54:31.599Z,5.33
2022-12-08T07:57:55.574Z,2.93
2022-12-08T08:01:27.665Z,4.97
2022-12-08T08:04:52.266Z,6.07
2022-12-08T08:08:16.801Z,3.47
2022-12-08T08:11:42.241Z,3.97
2022-12-08T08:15:08.551Z,5.93
2022-12-08T08:18:33.702Z,3.03
2022-12-08T08:21:57.522Z,3.47
2022-12-08T08:25:23.443Z,4.13
2022-12-08T08:28:48.126Z,4.80
2022-12-08T08:32:12.131Z,3.63
2022-12-08T08:35:37.350Z,3.93
2022-12-08T08:39:01.587Z,3.20
2022-12-08T08:42:25.172Z,3.97
2022-12-08T08:45:51.097Z,5.27
2022-12-08T08:49:14.673Z,4.70
2022-12-08T08:52:39.876Z,4.30
2022-12-08T08:56:05.080Z,4.83
2022-12-08T08:59:29.550Z,6.93
2022-12-08T09:02:53.109Z,7.87
2022-12-08T09:06:18.521Z,8.60
2022-12-08T09:09:45.267Z,8.13
2022-12-08T09:13:08.940Z,10.60
2022-12-08T09:16:36.199Z,9.50
2022-12-08T09:20:02.999Z,8.03
2022-12-08T09:23:30.789Z,6.50
2022-12-08T09:27:00.204Z,6.97
2022-12-08T09:30:23.890Z,7.07
2022-12-08T09:33:48.549Z,5.63
2022-12-08T09:37:12.291Z,9.00
2022-12-08T09:40:44.951Z,7.13
2022-12-08T09:44:39.654Z,7.33
2022-12-08T09:48:11.426Z,7.37
2022-12-08T09:51:40.468Z,8.50
2022-12-08T09:55:17.661Z,8.30
2022-12-08T09:58:53.567Z,7.50
2022-12-08T10:02:25.441Z,7.87
2022-12-08T10:05:58.632Z,7.33
2022-12-08T10:09:36.162Z,10.20
2022-12-08T10:13:09.378Z,6.83
2022-12-08T10:16:40.182Z,8.33
2022-12-08T10:20:14.393Z,5.93
2022-12-08T10:23:42.094Z,6.90
2022-12-08T10:27:11.781Z,7.17
2022-12-08T10:30:35.742Z,7.70
2022-12-08T10:34:02.567Z,7.93
2022-12-08T10:37:27.648Z,8.00
2022-12-08T10:40:54.709Z,7.10
2022-12-08T10:44:18.799Z,3.33
2022-12-08T10:47:45.500Z,2.43
2022-12-08T10:51:37.424Z,2.13
2022-12-08T10:55:03.043Z,1.70
2022-12-08T10:58:31.491Z,3.77
2022-12-08T11:01:57.963Z,2.07
2022-12-08T11:05:24.003Z,2.33
2022-12-08T11:08:52.706Z,1.90
2022-12-08T11:12:19.536Z,2.07
2022-12-08T11:15:46.990Z,2.07
2022-12-08T11:19:17.889Z,2.40
2022-12-08T11:22:43.673Z,2.03
2022-12-08T11:26:20.810Z,2.50
2022-12-08T11:29:45.749Z,3.13
2022-12-08T11:33:19.295Z,2.33
2022-12-08T11:36:43.296Z,2.40
2022-12-08T11:40:17.382Z,2.30
2022-12-08T11:43:51.855Z,3.30
2022-12-08T11:47:25.290Z,2.10
2022-12-08T11:50:54.596Z,2.80
2022-12-08T11:54:28.748Z,2.50
2022-12-08T11:57:55.296Z,2.40
2022-12-08T12:01:22.976Z,2.50
2022-12-08T12:04:55.443Z,2.50
2022-12-08T12:08:42.663Z,2.10
2022-12-08T12:12:19.215Z,2.07
2022-12-08T12:16:26.402Z,2.27
2022-12-08T12:19:53.635Z,3.10
2022-12-08T12:23:24.741Z,2.37
2022-12-08T12:27:01.741Z,3.10
2022-12-08T12:30:28.067Z,2.67
2022-12-08T12:33:54.996Z,2.67
2022-12-08T12:37:24.158Z,2.13
2022-12-08T12:40:47.752Z,1.90
2022-12-08T12:44:38.272Z,2.10
2022-12-08T12:48:26.161Z,2.13
2022-12-08T12:51:56.323Z,2.00
2022-12-08T12:55:55.869Z,2.30
2022-12-08T12:59:44.096Z,2.83
2022-12-08T13:03:16.847Z,2.10
2022-12-08T13:06:45.371Z,2.10
2022-12-08T13:10:20.198Z,1.63
2022-12-08T13:13:58.617Z,2.20
2022-12-08T13:17:29.356Z,2.00
2022-12-08T13:20:59.987Z,2.10
2022-12-08T13:24:33.370Z,1.97
2022-12-08T13:27:57.314Z,2.03
2022-12-08T13:31:45.239Z,2.33
2022-12-08T13:35:13.844Z,2.40
2022-12-08T13:38:40.021Z,2.60
2022-12-08T13:42:14.591Z,2.07
2022-12-08T13:46:48.672Z,2.63
2022-12-08T13:57:15.094Z,1.97
2022-12-08T14:00:39.185Z,1.80
2022-12-08T14:04:34.193Z,2.30
2022-12-08T14:07:52.712Z,2.40
2022-12-08T14:11:35.803Z,2.47
2022-12-08T14:15:04.682Z,2.57
2022-12-08T14:18:31.986Z,2.43
2022-12-08T14:22:00.039Z,2.07
2022-12-08T14:25:27.744Z,2.20
2022-12-08T14:28:51.615Z,2.97
2022-12-08T14:32:31.412Z,3.20
2022-12-08T14:35:57.433Z,2.07
2022-12-08T14:39:21.868Z,3.03
2022-12-08T14:42:49.273Z,2.63
2022-12-08T14:46:22.338Z,2.97
2022-12-08T14:49:47.966Z,2.23
2022-12-08T14:53:16.024Z,2.90
2022-12-08T14:56:43.184Z,2.57
2022-12-08T15:00:22.247Z,2.40
2022-12-08T15:03:50.855Z,2.53
2022-12-08T15:07:18.211Z,2.63
2022-12-08T15:10:48.056Z,2.20
2022-12-08T15:14:29.533Z,2.83
2022-12-08T15:18:05.368Z,4.70
2022-12-08T15:21:32.591Z,2.73
2022-12-08T15:24:57.318Z,6.70
2022-12-08T15:28:29.489Z,3.20
2022-12-08T15:31:56.481Z,2.67
2022-12-08T15:35:22.498Z,2.70
2022-12-08T15:38:46.082Z,2.10
2022-12-08T15:42:13.901Z,3.13
2022-12-08T15:45:37.759Z,2.20
2022-12-08T15:49:01.389Z,2.30
2022-12-08T15:52:26.581Z,2.53
2022-12-08T15:56:25.788Z,2.53
2022-12-08T15:59:34.383Z,3.33
2022-12-08T16:03:27.910Z,3.10
2022-12-08T16:07:20.278Z,2.90
2022-12-08T16:10:45.537Z,3.03
2022-12-08T16:14:48.720Z,2.53
2022-12-08T16:17:56.904Z,3.87
2022-12-08T16:21:53.437Z,2.20
2022-12-08T16:25:17.689Z,2.30
2022-12-08T16:28:53.951Z,2.23
2022-12-08T16:32:19.077Z,2.43
2022-12-08T16:35:43.892Z,2.67
2022-12-08T16:39:07.466Z,2.20
2022-12-08T16:42:44.369Z,2.20
2022-12-08T16:46:23.201Z,2.60
2022-12-08T16:49:46.750Z,2.30
2022-12-08T16:53:12.620Z,2.07
2022-12-08T16:56:36.134Z,2.17
2022-12-08T16:59:59.576Z,3.03
2022-12-08T17:03:24.401Z,2.50
2022-12-08T17:06:50.465Z,2.63
2022-12-08T17:10:17.402Z,2.67
2022-12-08T17:13:43.180Z,9.80
2022-12-08T17:17:07.041Z,5.20
2022-12-08T17:20:34.052Z,3.47
2022-12-08T17:23:57.920Z,4.10
2022-12-08T17:27:21.639Z,3.23
2022-12-08T17:30:45.213Z,3.07
2022-12-08T17:34:10.323Z,3.47
2022-12-08T17:37:35.333Z,3.30
2022-12-08T17:41:05.087Z,5.83
2022-12-08T17:44:29.143Z,5.43
2022-12-08T17:47:53.021Z,4.43
2022-12-08T17:51:17.086Z,4.87
2022-12-08T17:54:42.178Z,4.67
2022-12-08T17:58:06.738Z,3.93
2022-12-08T18:01:34.220Z,3.97
2022-12-08T18:04:58.165Z,11.77
2022-12-08T18:08:22.300Z,5.53
2022-12-08T18:11:47.403Z,4.87
2022-12-08T18:15:17.701Z,4.77
2022-12-08T18:18:41.230Z,4.13
2022-12-08T18:22:04.873Z,3.00
2022-12-08T18:25:28.370Z,3.13
2022-12-08T18:28:53.181Z,3.50
2022-12-08T18:32:17.340Z,3.60
2022-12-08T18:35:41.225Z,3.03
2022-12-08T18:39:10.489Z,3.33
2022-12-08T18:42:35.170Z,3.23
2022-12-08T18:46:04.122Z,3.07
2022-12-08T18:49:27.990Z,3.50
2022-12-08T18:52:52.360Z,4.23
2022-12-08T18:56:25.230Z,5.37
2022-12-08T18:59:49.794Z,4.10
2022-12-08T19:03:15.378Z,4.00
2022-12-08T19:06:40.237Z,3.30
2022-12-08T19:10:05.275Z,4.17
2022-12-08T19:13:29.245Z,4.83
2022-12-08T19:16:53.074Z,3.43
2022-12-08T19:20:18.296Z,4.37
2022-12-08T19:23:42.461Z,3.33
2022-12-08T19:27:06.901Z,3.30
2022-12-08T19:30:30.769Z,3.07
2022-12-08T19:33:54.751Z,3.70
2022-12-08T19:37:20.041Z,3.43
2022-12-08T19:41:01.580Z,3.40
2022-12-08T19:44:44.703Z,5.67
2022-12-08T19:48:08.575Z,4.07
2022-12-08T19:51:32.343Z,4.47
2022-12-08T19:54:57.660Z,5.20
2022-12-08T19:58:21.198Z,4.13
2022-12-08T20:01:45.170Z,3.50
2022-12-08T20:05:10.352Z,4.13
2022-12-08T20:08:34.455Z,3.80
2022-12-08T20:11:59.605Z,3.30
2022-12-08T20:15:23.663Z,3.37
2022-12-08T20:18:48.560Z,3.17
2022-12-08T20:22:12.810Z,2.67
2022-12-08T20:25:39.397Z,4.00
2022-12-08T20:29:04.568Z,4.60
2022-12-08T20:32:28.515Z,2.87
2022-12-08T20:36:00.689Z,3.90
2022-12-08T20:39:24.591Z,3.53
2022-12-08T20:42:48.420Z,5.80
2022-12-08T20:46:16.502Z,4.83
2022-12-08T20:49:40.985Z,5.60
2022-12-08T20:53:04.998Z,5.27
2022-12-08T20:56:29.121Z,5.77
2022-12-08T20:59:53.132Z,4.00
2022-12-08T21:03:18.632Z,4.73
2022-12-08T21:06:42.793Z,8.60
2022-12-08T21:10:07.952Z,5.20
2022-12-08T21:13:32.122Z,5.90
2022-12-08T21:16:56.276Z,6.90
2022-12-08T21:20:21.728Z,5.17
2022-12-08T21:23:46.280Z,6.00
2022-12-08T21:27:10.261Z,5.37
2022-12-08T21:30:35.183Z,8.07
2022-12-08T21:33:59.499Z,4.03
2022-12-08T21:37:25.033Z,5.67
2022-12-08T21:40:48.636Z,4.80
2022-12-08T21:44:18.347Z,4.83
2022-12-08T21:47:42.368Z,5.50
2022-12-08T21:51:06.636Z,5.83
2022-12-08T21:54:31.874Z,4.50
2022-12-08T21:57:56.915Z,5.43
2022-12-08T22:01:20.591Z,4.43
2022-12-08T22:04:44.558Z,5.50
2022-12-08T22:08:08.595Z,4.20
2022-12-08T22:11:33.733Z,6.30
2022-12-08T22:14:57.519Z,4.60
2022-12-08T22:18:21.101Z,4.57
2022-12-08T22:21:45.085Z,4.20
2022-12-08T22:25:11.921Z,6.73
2022-12-08T22:28:40.283Z,3.20
2022-12-08T22:32:04.130Z,3.27
2022-12-08T22:35:28.114Z,4.17
2022-12-08T22:38:53.072Z,4.07
2022-12-08T22:42:17.132Z,3.10
2022-12-08T22:45:42.416Z,4.30
2022-12-08T22:49:06.159Z,4.10
2022-12-08T22:52:29.895Z,3.40
2022-12-08T22:55:53.801Z,4.70
2022-12-08T22:59:17.389Z,3.83
2022-12-08T23:02:42.323Z,4.27
2022-12-08T23:06:13.737Z,4.10
2022-12-08T23:09:37.671Z,4.20
2022-12-08T23:13:03.938Z,3.90
2022-12-08T23:16:28.548Z,4.57
2022-12-08T23:19:54.004Z,3.80
2022-12-08T23:23:17.787Z,5.00
2022-12-08T23:26:43.040Z,5.20
2022-12-08T23:30:08.431Z,6.07
2022-12-08T23:33:32.577Z,5.30
2022-12-08T23:36:57.689Z,4.73
2022-12-08T23:40:21.171Z,5.07
2022-12-08T23:43:47.001Z,5.33
2022-12-08T23:47:10.522Z,5.97
2022-12-08T23:50:34.431Z,4.10
2022-12-08T23:53:59.232Z,4.23
2022-12-08T23:57:23.412Z,4.90
